首页
METAR-TAF:

METAR-TAF

机场 :

马塔维里国际机场

復活節島, 智利

纬度: 27-09S, 经度: 109-25W, 海拔: 51米

当前天气观测

该预报发布于1小时和0分钟前的08:00 UTC
风速2节,风向多变
温度 18°C
湿度 88%
气压 1013 hPa
能见度10公里或以上
多云层高于2000英尺

METAR: SCIP 300800Z VRB02KT 9999 BKN020 18/16 Q1013 NOSIG

时间: 03:00 (09:00 UTC)

预报

该预报发布于4小时和58分钟前的04:02 UTC
预报有效从30日的 06点(UTC)到 31日的 06点(UTC)
风速8节,风向北转西北
能见度10公里或以上
散云层高于4000英尺
多云层高于16000英尺
短暂存在
从 30日的 07点(UTC)到 30日的 17点(UTC)
能見度: 5000
多云层高于1500英尺
多云层高于5000英尺
小阵雨
成为
从 31日的 03点(UTC)到 31日的 05点(UTC)
风速18节,风向,有时为28节阵风
能見度: 4000
多云层高于1000英尺
多云层高于2000英尺
阵雨,

TAF: SCIP 300402Z 3006/3106 34008KT 9999 SCT040 BKN160 TN16/3010Z TX22/3019Z TEMPO 3007/3017 5000 -SHRA BKN015 BKN050 BECMG 3103/3105 35018G28KT 4000 SHRA BKN010 BKN020

超过4000个机场的气象观测和天气预报(METAR&TAF报告)。

可查询的气象台以黄色和红色小点在地图上表示。

将鼠标移到小点上方,可查看气象台名称。

然后点击查看天气观测和预报。

如需切换地图:点击带黑十字的绿色按钮放大地图;点击带横线的绿色按钮缩小地图;或者点击绿色箭头查看邻近地区的地图。


METAR-TAF: